Time;durP1;ratioP1;P1;durP2;ratioP2;P2;SDS_P1;SDS_P2;PMS_P1;PMS_P2;Temp;Humidity;BMP_temperature;BMP_pressure;BME280_temperature;BME280_humidity;BME280_pressure;Samples;Min_cycle;Max_cycle;Signal;HPM_P1;HPM_P2
2022/07/11 00:02:14;;;;;;;10.07;5.90;;;;;;;18.11;69.91;102292.69;5131637;27;20098;-63
2022/07/11 00:04:40;;;;;;;8.98;5.50;;;;;;;17.90;70.45;102295.94;5113897;27;20027;-63
2022/07/11 00:07:06;;;;;;;7.95;5.15;;;;;;;17.92;70.79;102287.75;5130613;27;20030;-63
2022/07/11 00:09:32;;;;;;;9.18;5.03;;;;;;;17.92;70.38;102291.31;5096692;27;20035;-63
2022/07/11 00:11:58;;;;;;;8.88;4.95;;;;;;;17.94;70.53;102285.81;5112113;27;20110;-63
2022/07/11 00:14:26;;;;;;;7.72;5.43;;;;;;;17.97;70.40;102291.00;5131731;27;20428;-63
2022/07/11 00:16:55;;;;;;;11.43;5.10;;;;;;;17.95;70.36;102289.38;5130554;27;20058;-63
2022/07/11 00:19:21;;;;;;;9.63;5.25;;;;;;;17.94;70.52;102283.13;5131791;27;20385;-63
2022/07/11 00:21:47;;;;;;;8.23;5.05;;;;;;;17.93;70.76;102290.34;5130239;27;20019;-63
2022/07/11 00:24:13;;;;;;;8.68;5.15;;;;;;;17.88;70.98;102279.06;5131849;27;20542;-63
2022/07/11 00:26:38;;;;;;;11.02;5.95;;;;;;;17.88;70.89;102280.84;5113194;27;20034;-63
2022/07/11 00:29:05;;;;;;;7.57;4.97;;;;;;;17.75;71.44;102282.69;5096034;27;20496;-63
2022/07/11 00:31:31;;;;;;;7.20;5.18;;;;;;;17.83;71.17;102273.13;5131131;27;20027;-63
2022/07/11 00:33:57;;;;;;;7.63;5.03;;;;;;;17.81;71.05;102275.06;5131764;27;20023;-63
2022/07/11 00:36:23;;;;;;;7.80;5.10;;;;;;;17.81;71.21;102263.44;5111638;27;20023;-63
2022/07/11 00:38:49;;;;;;;6.95;5.10;;;;;;;17.78;71.19;102261.81;5131456;27;20058;-63
2022/07/11 00:41:15;;;;;;;7.03;5.55;;;;;;;17.71;71.20;102263.19;5131100;27;20106;-63
2022/07/11 00:43:41;;;;;;;8.05;5.55;;;;;;;17.74;71.41;102268.38;5112668;28;20027;-63
2022/07/11 00:46:08;;;;;;;8.43;5.80;;;;;;;17.60;71.75;102273.84;5131395;28;20458;-63
2022/07/11 00:48:35;;;;;;;10.55;5.68;;;;;;;17.62;71.89;102271.94;5130844;28;20023;-63
2022/07/11 00:51:06;;;;;;;6.53;5.38;;;;;;;17.65;71.75;102272.56;5112729;28;20091;-63
2022/07/11 00:53:35;;;;;;;9.00;6.05;;;;;;;17.60;71.93;102268.47;5130579;28;20034;-64
2022/07/11 00:56:01;;;;;;;9.05;5.93;;;;;;;17.51;72.33;102266.44;5092662;28;20077;-63
2022/07/11 00:58:27;;;;;;;8.73;5.78;;;;;;;17.58;71.98;102268.56;5131329;28;20054;-63
2022/07/11 01:00:56;;;;;;;12.68;6.10;;;;;;;17.46;72.49;102256.84;5131607;28;20497;-63
2022/07/11 01:03:21;;;;;;;8.50;6.20;;;;;;;17.45;72.79;102262.34;5128113;28;20054;-63
2022/07/11 01:05:46;;;;;;;9.00;6.13;;;;;;;17.45;72.76;102255.13;5097663;27;20712;-63
2022/07/11 01:08:12;;;;;;;11.07;6.22;;;;;;;17.41;73.24;102253.63;5099563;27;20393;-63
2022/07/11 01:10:37;;;;;;;10.48;6.45;;;;;;;17.29;73.36;102253.59;5134839;27;20080;-63
2022/07/11 01:13:03;;;;;;;10.55;6.28;;;;;;;17.37;72.79;102262.84;5114997;27;20027;-63
2022/07/11 01:15:29;;;;;;;9.73;6.75;;;;;;;17.34;73.05;102257.69;5116987;27;20506;-64
2022/07/11 01:17:54;;;;;;;8.68;6.38;;;;;;;17.35;73.22;102262.09;5117069;27;20030;-63
2022/07/11 01:20:23;;;;;;;9.20;6.55;;;;;;;17.14;73.90;102259.06;5115695;27;20045;-63
2022/07/11 01:22:53;;;;;;;9.10;5.70;;;;;;;17.18;73.74;102254.34;5114606;27;20031;-63
2022/07/11 01:25:34;;;;;;;12.85;6.55;;;;;;;17.13;73.73;102257.34;5134807;27;20329;-63
2022/07/11 01:28:02;;;;;;;15.07;7.15;;;;;;;17.15;73.95;102259.94;5116577;27;20031;-63
2022/07/11 01:30:29;;;;;;;10.30;6.57;;;;;;;17.19;73.93;102256.06;5133594;27;20015;-63
2022/07/11 01:32:56;;;;;;;11.10;6.70;;;;;;;17.10;74.26;102251.31;5134861;27;20033;-63
2022/07/11 01:35:22;;;;;;;11.95;7.05;;;;;;;17.06;74.34;102256.06;5132949;27;20038;-63
2022/07/11 01:37:48;;;;;;;9.48;6.72;;;;;;;17.08;74.47;102254.09;5134486;27;20389;-63
2022/07/11 01:40:13;;;;;;;9.90;6.82;;;;;;;17.09;74.31;102254.94;5114923;27;20508;-63
2022/07/11 01:42:42;;;;;;;10.40;7.15;;;;;;;17.03;74.54;102253.56;5113896;27;20055;-63
2022/07/11 01:45:11;;;;;;;9.90;7.13;;;;;;;17.07;74.58;102255.06;5134907;27;20103;-63
2022/07/11 01:47:37;;;;;;;8.45;6.32;;;;;;;17.06;74.51;102252.47;5134838;27;20035;-63
2022/07/11 01:50:04;;;;;;;11.52;7.13;;;;;;;17.01;74.91;102267.09;5116029;27;20058;-63
2022/07/11 01:52:29;;;;;;;8.35;7.00;;;;;;;16.94;74.82;102255.06;5133701;27;20363;-63
2022/07/11 01:54:57;;;;;;;12.10;7.20;;;;;;;16.98;74.62;102264.63;5134072;27;20033;-63
2022/07/11 01:57:23;;;;;;;7.57;6.60;;;;;;;17.05;74.60;102264.19;5098466;27;20031;-63
2022/07/11 01:59:48;;;;;;;10.88;6.93;;;;;;;16.95;75.05;102262.16;5115836;27;20375;-63
2022/07/11 02:02:17;;;;;;;12.00;7.13;;;;;;;16.88;74.80;102254.59;5134287;27;20106;-63
2022/07/11 02:04:42;;;;;;;10.80;7.27;;;;;;;16.88;75.22;102271.56;5099034;27;20443;-63
2022/07/11 02:07:11;;;;;;;11.25;7.30;;;;;;;16.82;75.74;102269.28;5132705;27;20114;-63
2022/07/11 02:09:37;;;;;;;14.07;7.03;;;;;;;16.89;75.53;102267.06;5113465;27;20109;-63
2022/07/11 02:12:04;;;;;;;10.25;7.80;;;;;;;16.83;75.70;102268.34;5115520;27;20280;-63
2022/07/11 02:14:32;;;;;;;13.52;8.02;;;;;;;16.82;75.79;102260.38;5134157;27;20030;-63
2022/07/11 02:16:58;;;;;;;11.25;7.68;;;;;;;16.83;75.74;102256.75;5097749;27;20478;-63
2022/07/11 02:19:23;;;;;;;9.90;7.68;;;;;;;16.79;75.44;102248.00;5134091;27;20023;-63
2022/07/11 02:21:49;;;;;;;10.70;7.15;;;;;;;16.79;75.88;102259.63;5132232;27;20537;-63
2022/07/11 02:24:15;;;;;;;10.77;7.25;;;;;;;16.74;75.68;102259.03;5132532;27;20028;-63
2022/07/11 02:26:45;;;;;;;10.13;7.63;;;;;;;16.70;76.09;102256.66;5098251;27;20114;-63
2022/07/11 02:29:14;;;;;;;15.52;7.80;;;;;;;16.70;76.10;102262.88;5134123;27;20035;-63
2022/07/11 02:31:39;;;;;;;11.30;7.97;;;;;;;16.66;76.08;102256.00;5133721;27;20027;-63
2022/07/11 02:34:05;;;;;;;10.27;7.55;;;;;;;16.55;76.25;102245.09;5133683;27;20030;-63
2022/07/11 02:36:33;;;;;;;11.30;8.15;;;;;;;16.61;76.25;102257.25;5114471;27;20031;-63
2022/07/11 02:38:58;;;;;;;10.10;7.45;;;;;;;16.63;76.54;102253.50;5113791;27;21895;-63
2022/07/11 02:41:25;;;;;;;13.75;8.35;;;;;;;16.64;76.21;102260.59;5113961;27;20027;-63
2022/07/11 02:43:50;;;;;;;12.48;8.27;;;;;;;16.57;76.70;102261.97;5114991;27;20465;-63
2022/07/11 02:46:18;;;;;;;14.02;7.65;;;;;;;16.60;76.24;102260.91;5098313;27;20058;-63
2022/07/11 02:48:44;;;;;;;16.08;8.52;;;;;;;16.60;76.80;102261.78;5099082;27;20059;-63
2022/07/11 02:51:10;;;;;;;14.43;9.07;;;;;;;16.44;77.32;102261.03;5113627;27;20489;-63
2022/07/11 02:53:36;;;;;;;12.63;9.40;;;;;;;16.54;77.22;102264.88;5114613;27;20034;-63
2022/07/11 02:56:01;;;;;;;16.13;9.00;;;;;;;16.49;77.29;102257.09;5115187;27;20080;-63
2022/07/11 02:58:27;;;;;;;14.85;8.95;;;;;;;16.49;77.48;102250.88;5115039;27;20386;-63
2022/07/11 03:00:53;;;;;;;13.23;9.18;;;;;;;16.47;77.66;102256.34;5115122;27;20496;-63
2022/07/11 03:03:19;;;;;;;15.63;9.15;;;;;;;16.54;77.60;102256.81;5130180;27;20029;-63
2022/07/11 03:05:44;;;;;;;12.43;9.23;;;;;;;16.65;77.54;102250.72;5113716;27;20398;-63
2022/07/11 03:08:10;;;;;;;14.95;9.43;;;;;;;16.65;77.88;102250.72;5131336;27;20096;-63
2022/07/11 03:10:38;;;;;;;16.75;9.23;;;;;;;16.64;77.71;102249.00;5133194;27;20534;-63
2022/07/11 03:13:04;;;;;;;15.20;9.77;;;;;;;16.64;77.69;102259.75;5131773;27;20027;-63
2022/07/11 03:15:30;;;;;;;11.35;8.50;;;;;;;16.70;77.42;102253.97;5114321;27;20039;-63
2022/07/11 03:17:58;;;;;;;12.50;9.88;;;;;;;16.70;77.51;102253.97;5113765;27;20156;-63
2022/07/11 03:20:24;;;;;;;12.52;9.45;;;;;;;16.61;77.84;102260.78;5132974;27;20026;-63
2022/07/11 03:22:51;;;;;;;12.35;9.18;;;;;;;16.65;77.93;102274.88;5129157;27;20060;-63
2022/07/11 03:25:16;;;;;;;13.45;9.15;;;;;;;16.58;77.90;102267.22;5131031;27;20015;-63
2022/07/11 03:27:41;;;;;;;17.48;9.00;;;;;;;16.57;78.05;102268.19;5111312;27;20034;-63
2022/07/11 03:30:08;;;;;;;10.88;9.00;;;;;;;16.61;78.14;102273.38;5092936;27;20028;-63
2022/07/11 03:32:34;;;;;;;12.05;9.00;;;;;;;16.61;78.33;102273.38;5113865;27;20027;-63
2022/07/11 03:37:46;;;;;;;14.70;10.23;;;;;;;16.58;78.37;102279.81;5098314;27;20110;-63
2022/07/11 03:40:11;;;;;;;12.98;9.57;;;;;;;16.55;78.92;102269.25;5130083;27;20114;-63
2022/07/11 03:42:37;;;;;;;14.60;9.65;;;;;;;16.56;78.96;102269.19;5129953;27;20030;-63
2022/07/11 03:45:03;;;;;;;15.75;10.45;;;;;;;16.59;79.06;102270.81;5112294;27;20023;-63
2022/07/11 03:47:28;;;;;;;15.73;9.57;;;;;;;16.57;78.93;102273.56;5112802;27;20485;-63
2022/07/11 03:49:53;;;;;;;14.82;10.50;;;;;;;16.60;78.76;102274.34;5113529;27;20035;-63
2022/07/11 03:52:19;;;;;;;13.15;10.40;;;;;;;16.57;79.22;102278.09;5113089;27;20063;-63
2022/07/11 03:54:45;;;;;;;13.77;10.35;;;;;;;16.53;79.36;102274.75;5094073;27;20058;-63
2022/07/11 03:57:13;;;;;;;13.27;9.77;;;;;;;16.57;79.40;102273.56;5130410;27;20058;-63
2022/07/11 03:59:39;;;;;;;13.07;9.27;;;;;;;16.60;79.29;102277.88;5131226;27;20027;-64
2022/07/11 04:02:04;;;;;;;15.30;9.95;;;;;;;16.59;79.27;102270.81;5094000;27;20435;-63
2022/07/11 04:04:30;;;;;;;15.13;9.57;;;;;;;16.56;79.43;102266.50;5112276;27;20393;-63
2022/07/11 04:06:55;;;;;;;16.48;9.82;;;;;;;16.67;79.30;102273.81;5095344;27;20027;-63
2022/07/11 04:09:21;;;;;;;10.25;9.20;;;;;;;16.65;79.39;102264.13;5131037;27;20030;-63
2022/07/11 04:11:47;;;;;;;15.73;9.90;;;;;;;16.67;79.48;102270.28;5113382;27;20413;-63
2022/07/11 04:14:13;;;;;;;14.27;10.18;;;;;;;16.68;79.43;102274.72;5112379;27;20541;-63
2022/07/11 04:16:39;;;;;;;13.27;9.50;;;;;;;16.64;79.73;102263.28;5109525;27;20038;-63
2022/07/11 04:19:07;;;;;;;12.60;9.93;;;;;;;16.62;79.70;102275.97;5131461;27;20023;-63
2022/07/11 04:21:33;;;;;;;10.93;9.32;;;;;;;16.60;80.11;102268.97;5113187;28;20027;-63
2022/07/11 04:23:59;;;;;;;11.88;10.10;;;;;;;16.62;79.96;102261.66;5096322;27;20083;-63
2022/07/11 04:26:24;;;;;;;13.85;9.05;;;;;;;16.68;79.90;102267.50;5112139;27;20035;-63
2022/07/11 04:28:50;;;;;;;14.00;9.30;;;;;;;16.69;79.92;102271.06;5096131;27;20034;-63
2022/07/11 04:31:15;;;;;;;13.02;8.93;;;;;;;16.70;80.22;102262.00;5112815;28;20039;-63
2022/07/11 04:33:41;;;;;;;14.18;8.82;;;;;;;16.71;80.24;102261.94;5094589;27;20035;-64
2022/07/11 04:36:07;;;;;;;10.80;8.68;;;;;;;16.76;79.89;102258.94;5129899;27;20034;-64
2022/07/11 04:38:32;;;;;;;11.40;8.45;;;;;;;16.80;80.13;102266.72;5111087;27;20023;-63
2022/07/11 04:40:59;;;;;;;12.43;9.02;;;;;;;16.82;79.78;102265.75;5112332;28;20095;-63
2022/07/11 04:43:24;;;;;;;10.13;8.73;;;;;;;16.77;80.15;102260.69;5130156;27;20470;-63
2022/07/11 04:45:50;;;;;;;14.15;8.13;;;;;;;16.82;79.77;102274.66;5089642;28;20663;-63
2022/07/11 04:48:16;;;;;;;11.73;8.23;;;;;;;16.84;79.74;102267.38;5129057;27;20482;-63
2022/07/11 04:50:44;;;;;;;13.27;8.57;;;;;;;16.83;79.89;102279.09;5107219;28;20078;-63
2022/07/11 04:53:13;;;;;;;10.60;7.57;;;;;;;16.89;79.69;102276.00;5110296;28;20016;-63
2022/07/11 04:55:41;;;;;;;11.38;7.53;;;;;;;16.95;79.32;102282.78;5110917;28;20027;-63
2022/07/11 04:58:08;;;;;;;11.65;7.75;;;;;;;16.84;79.65;102279.94;5109641;28;20027;-63
2022/07/11 05:00:34;;;;;;;12.18;8.45;;;;;;;16.85;80.18;102278.97;5110638;28;20031;-63
2022/07/11 05:03:00;;;;;;;11.18;7.97;;;;;;;16.84;80.12;102286.19;5109292;28;20031;-63
2022/07/11 05:05:29;;;;;;;12.30;7.82;;;;;;;16.86;80.25;102295.00;5109728;28;20034;-63
2022/07/11 05:07:55;;;;;;;11.13;8.27;;;;;;;16.84;80.32;102294.25;5089752;28;20031;-63
2022/07/11 05:10:20;;;;;;;13.63;8.75;;;;;;;16.80;80.31;102290.06;5108767;28;20054;-63
2022/07/11 05:12:46;;;;;;;14.93;8.50;;;;;;;16.74;80.77;102301.16;5108198;28;20027;-63
2022/07/11 05:15:12;;;;;;;11.57;8.23;;;;;;;16.67;81.00;102291.78;5109457;28;20027;-63
2022/07/11 05:17:38;;;;;;;8.88;7.82;;;;;;;16.70;80.79;102295.13;5105493;28;20423;-63
2022/07/11 05:20:04;;;;;;;13.70;7.55;;;;;;;16.71;80.96;102291.47;5089718;28;20489;-63
2022/07/11 05:22:30;;;;;;;10.77;8.25;;;;;;;16.74;81.02;102302.03;5109466;28;20027;-63
2022/07/11 05:24:55;;;;;;;11.82;7.85;;;;;;;16.84;80.54;102294.25;5088403;28;20039;-63
2022/07/11 05:27:21;;;;;;;11.68;7.97;;;;;;;16.84;81.04;102309.50;5091701;28;20072;-63
2022/07/11 05:29:46;;;;;;;10.38;8.02;;;;;;;16.91;80.84;102306.31;5108877;28;20062;-63
2022/07/11 05:32:12;;;;;;;16.23;8.40;;;;;;;16.88;80.90;102301.13;5091405;28;20028;-63
2022/07/11 05:34:38;;;;;;;9.95;7.88;;;;;;;16.92;81.09;102308.03;5091730;28;20126;-63
2022/07/11 05:37:04;;;;;;;11.75;8.10;;;;;;;16.98;80.90;102304.09;5108446;28;20027;-63
2022/07/11 05:39:29;;;;;;;10.25;8.07;;;;;;;17.02;81.21;102305.59;5108764;28;20132;-63
2022/07/11 05:41:55;;;;;;;11.40;7.72;;;;;;;17.01;81.08;102304.75;5092086;28;20019;-63
2022/07/11 05:44:23;;;;;;;11.70;7.65;;;;;;;17.03;81.17;102305.50;5109996;28;20463;-63
2022/07/11 05:46:48;;;;;;;11.38;7.55;;;;;;;17.06;81.31;102303.56;5107209;28;20035;-63
2022/07/11 05:49:14;;;;;;;11.30;7.70;;;;;;;17.08;81.18;102304.31;5106715;28;20116;-63
2022/07/11 05:51:39;;;;;;;10.50;7.57;;;;;;;17.08;81.62;102309.69;5127604;27;20047;-64
2022/07/11 05:54:05;;;;;;;14.65;8.20;;;;;;;17.11;81.27;102309.50;5132095;27;20023;-63
2022/07/11 05:56:31;;;;;;;12.65;8.27;;;;;;;17.15;81.33;102316.41;5134063;27;20095;-63
2022/07/11 05:58:57;;;;;;;15.50;8.73;;;;;;;17.07;81.45;102298.09;5134136;27;20042;-63
2022/07/11 06:01:23;;;;;;;14.88;8.65;;;;;;;17.05;82.00;102308.06;5132986;27;20023;-63
2022/07/11 06:03:49;;;;;;;9.98;8.13;;;;;;;17.01;82.14;102306.56;5132937;27;20027;-63
2022/07/11 06:06:16;;;;;;;12.65;8.50;;;;;;;17.03;82.46;102310.03;5112069;27;20046;-63
2022/07/11 06:08:42;;;;;;;11.50;8.82;;;;;;;16.96;82.86;102320.28;5133138;27;20019;-63
2022/07/11 06:11:10;;;;;;;14.10;9.02;;;;;;;16.98;83.26;102317.53;5112957;27;20023;-63
2022/07/11 06:13:37;;;;;;;12.45;8.70;;;;;;;16.93;83.18;102317.81;5134257;27;20076;-63
2022/07/11 06:16:04;;;;;;;11.55;8.52;;;;;;;16.97;83.08;102315.78;5133739;27;20445;-63
2022/07/11 06:18:30;;;;;;;10.40;8.25;;;;;;;17.05;82.93;102315.28;5113842;27;20470;-63
2022/07/11 06:20:56;;;;;;;10.07;8.32;;;;;;;17.06;82.86;102328.63;5133375;27;20038;-63
2022/07/11 06:23:21;;;;;;;10.00;7.82;;;;;;;17.13;82.18;102329.94;5081017;27;20026;-62
2022/07/11 06:25:47;;;;;;;13.07;9.77;;;;;;;17.11;82.32;102333.69;5112876;27;20450;-62
2022/07/11 06:28:12;;;;;;;10.50;8.68;;;;;;;17.17;82.19;102333.28;5111890;27;20041;-63
2022/07/11 06:30:38;;;;;;;13.93;9.50;;;;;;;17.13;82.19;102337.16;5129515;27;20026;-63
2022/07/11 06:33:04;;;;;;;13.27;9.10;;;;;;;17.07;82.09;102322.28;5097896;27;20019;-62
2022/07/11 06:35:29;;;;;;;11.68;9.20;;;;;;;17.09;82.52;102330.22;5115293;27;20504;-62
2022/07/11 06:37:59;;;;;;;13.10;8.98;;;;;;;17.12;82.46;102325.53;5113726;27;20023;-62
2022/07/11 06:40:24;;;;;;;12.07;9.30;;;;;;;17.17;82.10;102327.91;5133545;27;20034;-62
2022/07/11 06:42:49;;;;;;;10.43;9.32;;;;;;;17.22;82.27;102332.00;5097172;27;20031;-62
2022/07/11 06:45:15;;;;;;;11.68;9.38;;;;;;;17.28;81.94;102332.56;5110759;27;20379;-62
2022/07/11 06:47:41;;;;;;;12.15;9.63;;;;;;;17.14;81.96;102333.47;5112482;27;20031;-63
2022/07/11 06:50:08;;;;;;;16.70;9.18;;;;;;;17.20;82.05;102336.59;5115069;27;20039;-63
2022/07/11 06:52:35;;;;;;;11.00;8.40;;;;;;;17.25;81.25;102336.31;5114591;27;20125;-63
2022/07/11 06:55:03;;;;;;;9.60;8.45;;;;;;;17.22;81.49;102329.31;5114737;27;20370;-62
2022/07/11 06:57:29;;;;;;;11.30;7.25;;;;;;;17.32;80.97;102323.31;5133579;27;20110;-62
2022/07/11 06:59:55;;;;;;;8.65;7.57;;;;;;;17.29;81.30;102323.50;5115058;27;20159;-63
2022/07/11 07:02:23;;;;;;;7.35;6.65;;;;;;;17.38;80.08;102331.84;5094859;27;21043;-62
2022/07/11 07:04:48;;;;;;;8.93;6.82;;;;;;;17.43;79.67;102329.69;5124301;27;21211;-62
2022/07/11 07:07:19;;;;;;;13.57;6.90;;;;;;;17.42;80.07;102324.41;5110640;27;20035;-62
2022/07/11 07:09:47;;;;;;;9.50;6.78;;;;;;;17.51;79.68;102329.16;5114367;27;20030;-62
2022/07/11 07:12:16;;;;;;;7.45;5.57;;;;;;;17.57;79.51;102325.19;5113344;27;20038;-62
2022/07/11 07:14:42;;;;;;;8.30;6.35;;;;;;;17.59;79.56;102325.94;5112105;27;20389;-62
2022/07/11 07:17:07;;;;;;;7.38;6.05;;;;;;;17.67;78.71;102328.94;5096386;27;20027;-62
2022/07/11 07:19:33;;;;;;;8.63;6.68;;;;;;;17.63;78.99;102324.75;5131864;27;20504;-62
2022/07/11 07:21:58;;;;;;;9.48;7.07;;;;;;;17.71;79.06;102325.09;5111261;27;20058;-63
2022/07/11 07:24:24;;;;;;;9.90;7.47;;;;;;;17.66;79.08;102321.84;5113681;27;20023;-62
2022/07/11 07:26:54;;;;;;;11.95;7.03;;;;;;;17.67;79.10;102320.88;5130520;27;20033;-62
2022/07/11 07:29:26;;;;;;;9.63;7.63;;;;;;;17.71;78.89;102317.88;5131305;27;20071;-63
2022/07/11 07:31:52;;;;;;;9.80;7.50;;;;;;;17.74;78.08;102314.13;5131975;27;20031;-62
2022/07/11 07:34:20;;;;;;;8.32;7.53;;;;;;;17.74;78.17;102316.81;5132369;27;20030;-62
2022/07/11 07:36:46;;;;;;;8.43;7.53;;;;;;;17.83;78.09;102320.72;5113260;27;20066;-62
2022/07/11 07:39:11;;;;;;;7.97;7.18;;;;;;;17.82;77.57;102317.13;5113567;27;20076;-63
2022/07/11 07:41:37;;;;;;;9.90;7.03;;;;;;;17.91;77.36;102319.22;5112281;27;20024;-62
2022/07/11 07:44:03;;;;;;;9.48;6.90;;;;;;;18.06;77.35;102325.34;5131558;27;20039;-62
2022/07/11 07:46:28;;;;;;;10.38;7.50;;;;;;;18.11;77.35;102323.16;5132055;27;20385;-62
2022/07/11 07:48:54;;;;;;;8.65;6.97;;;;;;;18.14;76.70;102322.09;5113797;27;20034;-62
2022/07/11 07:51:21;;;;;;;8.90;6.65;;;;;;;18.23;76.28;102332.19;5124076;27;20043;-63
2022/07/11 07:53:47;;;;;;;11.73;7.50;;;;;;;18.21;75.86;102336.00;5096111;27;20039;-62
2022/07/11 07:56:12;;;;;;;8.20;6.63;;;;;;;18.22;75.72;102330.47;5130532;27;20049;-62
2022/07/11 07:58:40;;;;;;;8.25;6.88;;;;;;;18.24;75.69;102330.38;5110642;27;20035;-62
2022/07/11 08:03:53;;;;;;;9.00;6.75;;;;;;;18.27;75.78;102338.25;5130766;27;20057;-62
2022/07/11 08:06:19;;;;;;;9.77;7.47;;;;;;;18.31;74.52;102342.44;5131213;27;20040;-62
2022/07/11 08:08:44;;;;;;;21.15;12.65;;;;;;;18.37;75.57;102344.69;5096856;27;20599;-62
2022/07/11 08:11:10;;;;;;;9.10;8.02;;;;;;;18.43;74.91;102341.53;5112034;27;20042;-62
2022/07/11 08:13:38;;;;;;;8.93;7.38;;;;;;;18.51;75.27;102335.59;5131621;27;20547;-62
2022/07/11 08:16:05;;;;;;;9.32;8.32;;;;;;;18.53;74.58;102331.81;5130241;27;20027;-62
2022/07/11 08:18:33;;;;;;;9.32;7.07;;;;;;;18.56;74.80;102336.09;5106463;28;20038;-62
2022/07/11 08:20:59;;;;;;;8.40;7.50;;;;;;;18.59;74.78;102338.59;5112379;27;20034;-63
2022/07/11 08:23:25;;;;;;;8.77;7.22;;;;;;;18.68;73.78;102337.03;5130066;27;20054;-62
2022/07/11 08:25:51;;;;;;;8.27;7.32;;;;;;;18.67;74.10;102335.31;5110199;27;20031;-62
2022/07/11 08:28:16;;;;;;;10.32;7.60;;;;;;;18.59;73.93;102341.28;5113427;27;20027;-62
2022/07/11 08:30:42;;;;;;;9.65;7.07;;;;;;;18.55;74.68;102342.47;5128471;27;20087;-62
2022/07/11 08:33:07;;;;;;;8.93;7.50;;;;;;;18.55;74.59;102342.47;5129182;27;20034;-63
2022/07/11 08:35:33;;;;;;;10.52;7.95;;;;;;;18.60;74.48;102337.63;5111350;27;20435;-62
2022/07/11 08:37:58;;;;;;;10.52;9.07;;;;;;;18.53;75.02;102347.09;5091127;28;20031;-62
2022/07/11 08:40:24;;;;;;;10.55;8.07;;;;;;;18.56;75.23;102349.56;5111208;28;20092;-63
2022/07/11 08:42:49;;;;;;;10.57;9.02;;;;;;;18.61;75.31;102342.88;5095841;28;20027;-62
2022/07/11 08:45:18;;;;;;;12.07;9.40;;;;;;;18.68;74.62;102342.44;5112625;28;20029;-62
2022/07/11 08:47:45;;;;;;;10.20;9.13;;;;;;;18.68;74.61;102339.72;5095520;28;20031;-63
2022/07/11 08:50:12;;;;;;;12.02;9.13;;;;;;;18.76;73.78;102342.75;5111480;28;20038;-63
2022/07/11 08:52:41;;;;;;;10.95;8.02;;;;;;;18.80;75.07;102345.13;5110735;28;20484;-63
2022/07/11 08:55:08;;;;;;;12.23;9.25;;;;;;;18.82;74.61;102342.31;5131176;28;20080;-63
2022/07/11 08:57:36;;;;;;;10.82;8.73;;;;;;;18.89;73.76;102335.50;5129221;28;20035;-62
2022/07/11 09:00:05;;;;;;;9.93;8.93;;;;;;;19.01;73.10;102342.66;5131613;28;20039;-62
2022/07/11 09:02:32;;;;;;;15.18;10.30;;;;;;;19.01;73.40;102339.97;5131242;28;20042;-62
2022/07/11 09:04:58;;;;;;;12.60;8.70;;;;;;;19.03;73.05;102340.72;5113291;28;20019;-62
2022/07/11 09:07:24;;;;;;;13.43;10.32;;;;;;;19.08;74.31;102331.41;5130839;28;20024;-62
2022/07/11 09:09:49;;;;;;;12.63;9.90;;;;;;;19.14;73.36;102333.66;5112804;28;20037;-63
2022/07/11 09:12:16;;;;;;;12.65;10.07;;;;;;;19.12;73.18;102325.69;5095843;28;20371;-62
2022/07/11 09:14:54;;;;;;;13.07;10.23;;;;;;;19.21;73.46;102337.63;5112972;28;20042;-62
2022/07/11 09:17:27;;;;;;;13.45;10.15;;;;;;;19.17;72.88;102314.53;5112888;28;20389;-63
2022/07/11 09:19:55;;;;;;;12.07;9.90;;;;;;;19.36;71.74;102330.19;5130021;28;20030;-62
2022/07/11 09:25:21;;;;;;;12.68;9.63;;;;;;;19.82;71.15;102330.19;5131286;27;20096;-63
2022/07/11 09:27:49;;;;;;;12.15;9.60;;;;;;;20.12;70.15;102308.00;5135138;27;20023;-62
2022/07/11 09:30:21;;;;;;;14.32;10.00;;;;;;;20.64;69.06;102324.53;5135338;27;20075;-63
2022/07/11 09:32:57;;;;;;;9.90;8.90;;;;;;;20.72;67.26;102322.06;5116950;27;20051;-63
2022/07/11 09:35:26;;;;;;;11.45;10.27;;;;;;;20.63;67.49;102317.41;5114440;27;20175;-63
2022/07/11 09:37:57;;;;;;;15.27;9.93;;;;;;;20.70;67.63;102321.31;5134809;27;20027;-63
2022/07/11 09:40:25;;;;;;;11.57;9.65;;;;;;;20.70;66.83;102317.75;5135356;27;20110;-63
2022/07/11 09:42:55;;;;;;;11.68;9.63;;;;;;;20.73;67.03;102322.91;5135135;27;20030;-63
2022/07/11 09:45:26;;;;;;;12.95;9.50;;;;;;;20.79;66.69;102320.56;5116697;27;20042;-63
2022/07/11 09:47:57;;;;;;;10.55;9.10;;;;;;;20.89;64.96;102323.38;5135059;27;20394;-63
2022/07/11 09:50:25;;;;;;;11.10;8.25;;;;;;;20.93;64.82;102327.53;5134705;27;20036;-63
2022/07/11 09:53:03;;;;;;;12.63;8.68;;;;;;;20.87;65.24;102325.34;5134328;27;20080;-62
2022/07/11 09:55:47;;;;;;;13.00;8.93;;;;;;;20.86;65.90;102327.19;5134762;27;20100;-62
2022/07/11 09:58:15;;;;;;;12.27;8.45;;;;;;;20.67;66.25;102321.59;5116457;27;20034;-63
2022/07/11 10:00:41;;;;;;;11.60;9.02;;;;;;;20.49;67.46;102321.22;5134010;27;20490;-63
2022/07/11 10:03:11;;;;;;;12.23;10.10;;;;;;;20.32;67.25;102317.19;5134697;27;20019;-63
2022/07/11 10:05:39;;;;;;;10.30;8.75;;;;;;;20.24;67.72;102325.06;5132333;27;20102;-63
2022/07/11 10:08:05;;;;;;;12.18;8.52;;;;;;;20.14;67.81;102321.38;5133966;27;20030;-63
2022/07/11 10:10:32;;;;;;;13.43;8.93;;;;;;;20.05;68.66;102317.56;5134523;27;20455;-62
2022/07/11 10:12:59;;;;;;;11.45;8.75;;;;;;;19.98;69.45;102315.50;5134224;27;20031;-62
2022/07/11 10:15:32;;;;;;;14.82;10.50;;;;;;;19.98;69.64;102315.50;5116000;27;20480;-62
2022/07/11 10:18:43;;;;;;;12.00;10.23;;;;;;;20.02;70.07;102331.31;5133916;27;20023;-63
2022/07/11 10:21:17;;;;;;;13.40;10.38;;;;;;;19.99;69.53;102325.31;5131303;27;20150;-62
2022/07/11 10:23:54;;;;;;;13.93;9.98;;;;;;;20.05;69.86;102322.09;5133658;27;20019;-62
2022/07/11 10:26:30;;;;;;;16.38;10.80;;;;;;;20.02;69.03;102325.91;5115816;27;20055;-62
2022/07/11 10:29:01;;;;;;;13.38;10.52;;;;;;;20.29;68.51;102324.69;5132032;27;20024;-62
2022/07/11 10:31:30;;;;;;;13.98;10.38;;;;;;;20.31;68.01;102325.41;5134148;27;20474;-62
2022/07/11 10:34:18;;;;;;;12.25;10.20;;;;;;;20.47;68.19;102330.44;5134320;27;20023;-62
2022/07/11 10:36:45;;;;;;;11.73;9.07;;;;;;;20.45;67.87;102338.69;5132381;27;20031;-63
2022/07/11 10:39:29;;;;;;;10.45;8.27;;;;;;;20.58;67.86;102338.56;5134063;27;20023;-63
2022/07/11 10:42:20;;;;;;;11.70;9.30;;;;;;;20.53;67.08;102341.66;5090539;28;20032;-63
2022/07/11 10:44:54;;;;;;;12.00;9.65;;;;;;;20.52;67.16;102339.91;5090628;28;20043;-62
2022/07/11 10:47:40;;;;;;;13.70;10.07;;;;;;;20.58;67.63;102343.97;5090752;28;20161;-62
2022/07/11 10:50:25;;;;;;;11.85;8.88;;;;;;;20.58;67.55;102341.25;5090516;28;20020;-63
2022/07/11 10:52:56;;;;;;;12.68;9.38;;;;;;;20.64;67.12;102340.75;5090159;28;20048;-63
2022/07/11 10:55:35;;;;;;;15.13;9.95;;;;;;;20.74;67.71;102340.88;5089793;28;20039;-63
2022/07/11 10:58:25;;;;;;;11.63;10.43;;;;;;;20.86;67.08;102338.00;5090569;28;20449;-62
2022/07/11 11:01:16;;;;;;;12.23;9.82;;;;;;;20.79;67.53;102323.25;5090541;28;20040;-62
2022/07/11 11:03:44;;;;;;;12.55;9.15;;;;;;;20.81;66.55;102334.81;5074434;28;20028;-63
2022/07/11 11:06:10;;;;;;;12.65;9.27;;;;;;;20.72;66.37;102332.88;5089355;28;20107;-62
2022/07/11 11:08:40;;;;;;;11.80;8.88;;;;;;;20.68;66.32;102331.44;5090160;28;20040;-63
2022/07/11 11:11:05;;;;;;;9.55;7.60;;;;;;;20.64;67.05;102335.34;5090163;28;20028;-63
2022/07/11 11:13:35;;;;;;;9.90;7.50;;;;;;;20.55;68.26;102333.41;5116972;27;20055;-63
2022/07/11 11:16:02;;;;;;;10.00;7.35;;;;;;;20.50;67.12;102339.16;5133249;27;20080;-63
2022/07/11 11:18:36;;;;;;;8.40;6.72;;;;;;;20.57;67.45;102337.72;5133259;27;20359;-63
2022/07/11 11:21:07;;;;;;;8.25;5.95;;;;;;;20.51;67.97;102349.00;5114642;27;20780;-63
2022/07/11 11:23:42;;;;;;;9.48;5.63;;;;;;;20.50;68.44;102351.81;5114621;27;20438;-63
2022/07/11 11:26:11;;;;;;;6.13;5.18;;;;;;;20.45;68.31;102345.94;5133199;27;20031;-63
2022/07/11 11:28:38;;;;;;;6.40;5.55;;;;;;;20.42;68.27;102341.63;5114493;27;20027;-63
2022/07/11 11:31:07;;;;;;;6.72;6.03;;;;;;;20.39;69.04;102344.59;5133021;27;20023;-63